Ferwert, Netherlands
Current Conditions -  °F | °C
As of 11:25 AM on Thursday 29 Jan 2015 (Local Time) from EHLW Reporting Station
Unknown Precip Unknown Precip  
Wind Chill: 28°   Ceiling: 6200
Heat Index: 37°   Visibility: 6mi
Dew Point: 32°   Wind: 16mph
Humidity: 81%   Direction: 240°WSW
Pressure: 28.97"   Gusts: 30mph
Location:  53.34°N, 5.83°E
Report Text: EHLW 291025Z AUTO 24014G26KT 9999 -UP FEW005 SCT010 BKN062 03/00 Q0981 GRN
Loading
Personal Weather Stations






























Interactive Weather Map New forecast layout! Learn more

10-Day Weather Forecast

Advertisements
Track Severe Weather on mobile